createdAt,value
2023-04-15T00:00:44.638Z,83.07
2023-04-15T00:03:42.539Z,83.08
2023-04-15T00:06:40.910Z,82.95
2023-04-15T00:09:38.678Z,82.93
2023-04-15T00:12:36.098Z,82.73
2023-04-15T00:15:34.092Z,82.69
2023-04-15T00:18:31.747Z,82.65
2023-04-15T00:21:29.753Z,82.69
2023-04-15T00:24:27.197Z,82.69
2023-04-15T00:27:25.131Z,82.66
2023-04-15T00:30:22.585Z,82.63
2023-04-15T00:33:20.299Z,82.62
2023-04-15T00:36:17.769Z,82.60
2023-04-15T00:39:16.850Z,82.65
2023-04-15T00:42:14.323Z,82.70
2023-04-15T00:45:12.082Z,82.63
2023-04-15T00:48:10.549Z,82.70
2023-04-15T00:51:09.775Z,82.70
2023-04-15T00:54:09.323Z,82.72
2023-04-15T00:57:06.732Z,82.80
2023-04-15T01:00:06.304Z,82.80
2023-04-15T01:03:03.909Z,82.88
2023-04-15T01:06:04.010Z,82.97
2023-04-15T01:09:02.048Z,83.00
2023-04-15T01:12:00.069Z,83.00
2023-04-15T01:14:57.508Z,83.07
2023-04-15T01:17:55.334Z,83.12
2023-04-15T01:20:53.194Z,83.17
2023-04-15T01:23:50.586Z,83.20
2023-04-15T01:26:49.339Z,83.21
2023-04-15T01:29:47.348Z,83.23
2023-04-15T01:32:45.129Z,83.25
2023-04-15T01:35:44.275Z,83.32
2023-04-15T01:38:41.997Z,83.40
2023-04-15T01:41:39.501Z,83.46
2023-04-15T01:44:37.765Z,83.49
2023-04-15T01:47:35.437Z,83.50
2023-04-15T01:50:32.933Z,83.50
2023-04-15T01:53:30.747Z,83.56
2023-04-15T01:56:28.150Z,83.56
2023-04-15T01:59:26.199Z,83.57
2023-04-15T02:02:23.738Z,83.67
2023-04-15T02:05:21.492Z,83.64
2023-04-15T02:08:19.052Z,83.60
2023-04-15T02:11:16.864Z,83.60
2023-04-15T02:14:14.287Z,83.60
2023-04-15T02:17:12.014Z,83.59
2023-04-15T02:20:10.988Z,83.60
2023-04-15T02:23:08.766Z,83.60
2023-04-15T02:26:07.731Z,83.60
2023-04-15T02:29:05.228Z,83.63
2023-04-15T02:32:02.811Z,83.65
2023-04-15T02:35:00.262Z,83.66
2023-04-15T02:37:57.901Z,83.63
2023-04-15T02:40:55.559Z,83.70
2023-04-15T02:43:53.313Z,83.70
2023-04-15T02:46:53.032Z,83.71
2023-04-15T02:49:50.444Z,83.71
2023-04-15T02:52:48.264Z,83.72
2023-04-15T02:55:45.735Z,83.70
2023-04-15T02:58:43.484Z,83.65
2023-04-15T03:01:40.931Z,83.70
2023-04-15T03:04:38.579Z,83.70
2023-04-15T03:07:36.068Z,83.72
2023-04-15T03:10:33.730Z,83.71
2023-04-15T03:13:31.537Z,83.72
2023-04-15T03:16:28.944Z,83.73
2023-04-15T03:19:26.620Z,83.68
2023-04-15T03:22:24.031Z,83.60
2023-04-15T03:25:21.835Z,83.60
2023-04-15T03:28:19.247Z,83.60
2023-04-15T03:31:17.195Z,83.59
2023-04-15T03:34:14.700Z,83.57
2023-04-15T03:37:12.309Z,83.59
2023-04-15T03:40:10.033Z,83.60
2023-04-15T03:43:07.477Z,83.58
2023-04-15T03:46:05.093Z,83.52
2023-04-15T03:49:02.724Z,83.47
2023-04-15T03:52:00.749Z,83.48
2023-04-15T03:54:58.200Z,83.44
2023-04-15T03:57:55.957Z,83.48
2023-04-15T04:00:53.460Z,83.50
2023-04-15T04:03:51.508Z,83.50
2023-04-15T04:06:49.470Z,83.44
2023-04-15T04:09:47.414Z,83.40
2023-04-15T04:12:45.210Z,83.38
2023-04-15T04:15:42.699Z,83.40
2023-04-15T04:18:40.416Z,83.43
2023-04-15T04:21:39.763Z,83.47
2023-04-15T04:24:37.520Z,83.47
2023-04-15T04:27:35.019Z,83.46
2023-04-15T04:30:33.065Z,83.48
2023-04-15T04:33:30.900Z,83.43
2023-04-15T04:36:28.358Z,83.48
2023-04-15T04:39:26.536Z,83.50
2023-04-15T04:42:23.984Z,83.50
2023-04-15T04:45:21.757Z,83.50
2023-04-15T04:48:20.004Z,83.50
2023-04-15T04:51:17.679Z,83.51
2023-04-15T04:54:15.126Z,83.51
2023-04-15T04:57:13.947Z,83.51
2023-04-15T05:00:11.452Z,83.50
2023-04-15T05:03:09.500Z,83.48
2023-04-15T05:06:08.990Z,83.44
2023-04-15T05:09:06.788Z,83.41
2023-04-15T05:12:04.415Z,83.40
2023-04-15T05:15:01.818Z,83.40
2023-04-15T05:17:59.646Z,83.42
2023-04-15T05:20:57.155Z,83.50
2023-04-15T05:23:54.723Z,83.52
2023-04-15T05:26:52.594Z,83.53
2023-04-15T05:29:50.064Z,83.58
2023-04-15T05:32:47.814Z,83.57
2023-04-15T05:35:45.229Z,83.57
2023-04-15T05:38:44.872Z,83.50
2023-04-15T05:41:42.270Z,83.49
2023-04-15T05:44:40.022Z,83.52
2023-04-15T05:47:37.933Z,83.51
2023-04-15T05:50:35.968Z,83.46
2023-04-15T05:53:33.614Z,83.40
2023-04-15T05:56:31.794Z,83.25
2023-04-15T05:59:29.942Z,83.14
2023-04-15T06:02:28.060Z,83.04
2023-04-15T06:05:25.801Z,83.04
2023-04-15T06:08:23.558Z,83.09
2023-04-15T06:11:21.241Z,83.12
2023-04-15T06:14:18.846Z,83.07
2023-04-15T06:17:18.541Z,83.03
2023-04-15T06:20:16.473Z,83.10
2023-04-15T06:23:13.882Z,82.98
2023-04-15T06:26:11.527Z,83.00
2023-04-15T06:29:09.654Z,82.97
2023-04-15T06:32:07.134Z,82.80
2023-04-15T06:35:04.913Z,82.66
2023-04-15T06:38:02.315Z,82.70
2023-04-15T06:40:59.980Z,82.63
2023-04-15T06:43:57.439Z,82.51
2023-04-15T06:46:55.243Z,82.28
2023-04-15T06:49:53.024Z,82.18
2023-04-15T06:52:50.906Z,82.10
2023-04-15T06:55:48.644Z,82.04
2023-04-15T06:58:46.433Z,81.97
2023-04-15T07:01:44.049Z,81.90
2023-04-15T07:04:41.512Z,81.82
2023-04-15T07:07:39.138Z,81.74
2023-04-15T07:10:36.880Z,81.75
2023-04-15T07:13:34.333Z,81.72
2023-04-15T07:16:32.076Z,81.63
2023-04-15T07:19:29.518Z,81.66
2023-04-15T07:22:28.102Z,81.45
2023-04-15T07:25:25.828Z,81.28
2023-04-15T07:28:23.587Z,81.25
2023-04-15T07:31:22.156Z,81.35
2023-04-15T07:34:19.636Z,81.43
2023-04-15T07:37:18.004Z,81.46
2023-04-15T07:40:16.339Z,81.41
2023-04-15T07:43:14.123Z,81.34
2023-04-15T07:46:11.816Z,81.37
2023-04-15T07:49:09.354Z,81.51
2023-04-15T07:52:06.982Z,81.41
2023-04-15T07:55:04.839Z,81.13
2023-04-15T07:58:02.427Z,81.10
2023-04-15T08:00:59.823Z,81.11
2023-04-15T08:03:58.245Z,81.11
2023-04-15T08:06:56.198Z,80.95
2023-04-15T08:09:53.616Z,80.89
2023-04-15T08:12:55.741Z,80.92
2023-04-15T08:15:53.258Z,80.77
2023-04-15T08:18:50.882Z,80.75
2023-04-15T08:21:48.334Z,80.80
2023-04-15T08:24:45.905Z,80.72
2023-04-15T08:27:44.288Z,80.58
2023-04-15T08:30:41.860Z,80.49
2023-04-15T08:33:40.173Z,80.41
2023-04-15T08:36:37.577Z,80.36
2023-04-15T08:39:35.217Z,80.40
2023-04-15T08:42:32.660Z,80.28
2023-04-15T08:45:30.288Z,80.07
2023-04-15T08:48:28.108Z,79.89
2023-04-15T08:51:25.495Z,79.57
2023-04-15T08:54:23.121Z,79.22
2023-04-15T08:57:20.565Z,79.23
2023-04-15T09:00:19.301Z,79.07
2023-04-15T09:03:17.929Z,79.10
2023-04-15T09:06:15.400Z,79.15
2023-04-15T09:09:13.287Z,78.96
2023-04-15T09:12:11.402Z,78.87
2023-04-15T09:15:09.201Z,79.01
2023-04-15T09:18:07.053Z,78.93
2023-04-15T09:21:05.818Z,78.85
2023-04-15T09:24:04.386Z,78.82
2023-04-15T09:27:02.568Z,78.90
2023-04-15T09:30:00.205Z,78.51
2023-04-15T09:32:57.638Z,78.44
2023-04-15T09:35:55.233Z,78.16
2023-04-15T09:38:53.136Z,77.57
2023-04-15T09:41:51.675Z,77.33
2023-04-15T09:44:49.350Z,77.35
2023-04-15T09:47:46.885Z,77.38
2023-04-15T09:50:44.685Z,77.36
2023-04-15T09:53:42.140Z,76.88
2023-04-15T09:56:42.397Z,76.73
2023-04-15T09:59:39.907Z,76.63
2023-04-15T10:02:37.789Z,76.90
2023-04-15T10:05:35.996Z,76.80
2023-04-15T10:08:34.995Z,76.64
2023-04-15T10:11:33.255Z,76.47
2023-04-15T10:14:30.821Z,76.34
2023-04-15T10:17:31.134Z,76.52
2023-04-15T10:20:29.462Z,76.75
2023-04-15T10:23:27.529Z,76.56
2023-04-15T10:26:25.266Z,76.22
2023-04-15T10:29:22.660Z,76.29
2023-04-15T10:32:21.030Z,76.41
2023-04-15T10:35:18.806Z,76.25
2023-04-15T10:38:16.545Z,75.85
2023-04-15T10:41:14.200Z,75.49
2023-04-15T10:44:11.837Z,75.57
2023-04-15T10:47:10.860Z,75.97
2023-04-15T10:50:09.165Z,76.22
2023-04-15T10:53:06.606Z,76.43
2023-04-15T10:56:06.335Z,76.35
2023-04-15T10:59:03.723Z,76.18
2023-04-15T11:02:01.414Z,76.02
2023-04-15T11:04:58.876Z,75.79
2023-04-15T11:07:56.508Z,75.86
2023-04-15T11:10:57.080Z,76.03
2023-04-15T11:13:54.574Z,76.05
2023-04-15T11:16:52.221Z,76.18
2023-04-15T11:19:49.643Z,75.98
2023-04-15T11:22:47.559Z,75.94
2023-04-15T11:25:45.015Z,75.95
2023-04-15T11:28:43.325Z,75.72
2023-04-15T11:31:41.193Z,74.84
2023-04-15T11:34:38.678Z,74.65
2023-04-15T11:37:36.270Z,74.85
2023-04-15T11:40:35.537Z,74.66
2023-04-15T11:43:34.439Z,74.67
2023-04-15T11:46:32.450Z,74.25
2023-04-15T11:49:30.040Z,74.03
2023-04-15T11:52:27.698Z,73.82
2023-04-15T11:55:25.118Z,73.79
2023-04-15T11:58:22.844Z,73.45
2023-04-15T12:01:20.278Z,73.15
2023-04-15T12:04:21.645Z,73.40
2023-04-15T12:07:22.125Z,73.25
2023-04-15T12:10:19.507Z,73.18
2023-04-15T12:13:17.170Z,72.96
2023-04-15T12:16:14.750Z,72.58
2023-04-15T12:19:12.598Z,72.90
2023-04-15T12:22:11.657Z,72.36
2023-04-15T12:25:09.391Z,72.26
2023-04-15T12:28:06.981Z,72.82
2023-04-15T12:31:05.669Z,72.79
2023-04-15T12:34:03.917Z,72.77
2023-04-15T12:37:01.792Z,72.57
2023-04-15T12:39:59.247Z,72.60
2023-04-15T12:42:57.320Z,72.35
2023-04-15T12:45:54.772Z,71.94
2023-04-15T12:48:53.490Z,71.71
2023-04-15T12:51:51.110Z,71.17
2023-04-15T12:54:48.706Z,70.82
2023-04-15T12:57:46.126Z,70.41
2023-04-15T13:00:44.392Z,70.24
2023-04-15T13:03:42.325Z,69.93
2023-04-15T13:06:39.969Z,69.69
2023-04-15T13:09:38.138Z,69.43
2023-04-15T13:12:36.842Z,68.74
2023-04-15T13:15:34.571Z,68.62
2023-04-15T13:18:32.150Z,68.38
2023-04-15T13:21:30.039Z,68.34
2023-04-15T13:24:27.715Z,68.44
2023-04-15T13:27:25.152Z,68.67
2023-04-15T13:30:23.492Z,68.70
2023-04-15T13:33:20.958Z,68.14
2023-04-15T13:36:18.652Z,68.09
2023-04-15T13:39:16.119Z,68.02
2023-04-15T13:42:13.740Z,67.69
2023-04-15T13:45:11.471Z,67.63
2023-04-15T13:48:08.904Z,67.48
2023-04-15T13:51:06.875Z,67.22
2023-04-15T13:54:04.822Z,67.15
2023-04-15T13:57:03.060Z,67.50
2023-04-15T14:00:00.600Z,67.81
2023-04-15T14:02:58.363Z,67.52
2023-04-15T14:05:57.391Z,67.33
2023-04-15T14:08:55.017Z,67.36
2023-04-15T14:11:52.794Z,67.49
2023-04-15T14:14:50.283Z,67.44
2023-04-15T14:17:48.189Z,67.23
2023-04-15T14:20:45.850Z,67.07
2023-04-15T14:23:43.593Z,66.91
2023-04-15T14:26:41.781Z,66.82
2023-04-15T14:29:39.204Z,66.66
2023-04-15T14:32:37.058Z,66.83
2023-04-15T14:35:34.830Z,67.13
2023-04-15T14:38:34.261Z,66.86
2023-04-15T14:41:31.901Z,66.86
2023-04-15T14:47:27.201Z,67.03
2023-04-15T14:50:25.378Z,66.87
2023-04-15T14:53:23.077Z,66.79
2023-04-15T14:56:20.796Z,67.19
2023-04-15T14:59:18.551Z,67.52
2023-04-15T15:02:37.360Z,67.59
2023-04-15T15:05:36.548Z,67.67
2023-04-15T15:08:34.791Z,68.13
2023-04-15T15:11:32.250Z,68.17
2023-04-15T15:14:31.511Z,68.39
2023-04-15T15:17:29.390Z,68.53
2023-04-15T15:20:27.245Z,68.55
2023-04-15T15:23:25.125Z,68.68
2023-04-15T15:26:22.553Z,68.56
2023-04-15T15:29:20.686Z,68.38
2023-04-15T15:32:18.237Z,68.47
2023-04-15T15:35:16.670Z,68.68
2023-04-15T15:38:14.467Z,68.73
2023-04-15T15:41:11.965Z,68.67
2023-04-15T15:44:09.680Z,68.55
2023-04-15T15:47:07.426Z,68.56
2023-04-15T15:50:06.233Z,68.80
2023-04-15T15:53:04.205Z,68.77
2023-04-15T15:56:04.123Z,68.91
2023-04-15T15:59:02.323Z,68.91
2023-04-15T16:02:00.002Z,68.87
2023-04-15T16:04:57.880Z,68.95
2023-04-15T16:07:55.613Z,68.93
2023-04-15T16:10:53.254Z,68.95
2023-04-15T16:13:50.666Z,68.97
2023-04-15T16:16:48.660Z,69.22
2023-04-15T16:19:58.187Z,69.20
2023-04-15T16:22:58.283Z,69.27
2023-04-15T16:25:58.122Z,69.18
2023-04-15T16:28:55.937Z,68.97
2023-04-15T16:31:53.993Z,68.98
2023-04-15T16:34:52.778Z,69.07
2023-04-15T16:37:50.971Z,69.03
2023-04-15T16:40:48.862Z,69.08
2023-04-15T16:43:47.215Z,69.16
2023-04-15T16:46:44.930Z,69.04
2023-04-15T16:49:42.754Z,69.01
2023-04-15T16:52:41.989Z,68.94
2023-04-15T16:55:39.869Z,69.18
2023-04-15T16:58:37.930Z,69.22
2023-04-15T17:01:37.596Z,69.22
2023-04-15T17:04:36.524Z,69.27
2023-04-15T17:07:34.827Z,69.24
2023-04-15T17:10:32.281Z,69.32
2023-04-15T17:13:31.383Z,69.50
2023-04-15T17:16:30.017Z,69.60
2023-04-15T17:19:29.275Z,69.86
2023-04-15T17:22:27.268Z,69.71
2023-04-15T17:25:24.808Z,69.87
2023-04-15T17:28:24.043Z,70.25
2023-04-15T17:31:21.593Z,70.35
2023-04-15T17:34:19.385Z,70.40
2023-04-15T17:37:17.076Z,70.47
2023-04-15T17:40:16.648Z,70.68
2023-04-15T17:43:15.081Z,70.85
2023-04-15T17:46:14.012Z,71.10
2023-04-15T17:49:11.803Z,71.15
2023-04-15T17:52:09.826Z,71.28
2023-04-15T17:55:08.023Z,71.27
2023-04-15T17:58:06.590Z,71.33
2023-04-15T18:01:05.385Z,71.54
2023-04-15T18:04:08.637Z,71.73
2023-04-15T18:07:06.970Z,71.91
2023-04-15T18:10:05.448Z,72.05
2023-04-15T18:13:04.090Z,72.19
2023-04-15T18:16:02.196Z,72.29
2023-04-15T18:19:00.074Z,72.41
2023-04-15T18:21:58.721Z,72.55
2023-04-15T18:24:59.804Z,72.65
2023-04-15T18:27:57.781Z,72.78
2023-04-15T18:30:58.093Z,72.89
2023-04-15T18:33:56.678Z,73.03
2023-04-15T18:36:55.068Z,73.16
2023-04-15T18:39:53.046Z,73.27
2023-04-15T18:42:50.793Z,73.37
2023-04-15T18:45:49.095Z,73.49
2023-04-15T18:48:47.326Z,73.58
2023-04-15T18:51:46.576Z,73.68
2023-04-15T18:54:45.265Z,73.81
2023-04-15T18:57:45.827Z,73.95
2023-04-15T19:00:45.169Z,74.05
2023-04-15T19:03:43.649Z,74.22
2023-04-15T19:06:43.194Z,74.35
2023-04-15T19:09:41.196Z,74.53
2023-04-15T19:12:41.133Z,74.69
2023-04-15T19:15:39.667Z,74.83
2023-04-15T19:18:39.486Z,74.99
2023-04-15T19:21:42.815Z,75.14
2023-04-15T19:24:41.795Z,75.27
2023-04-15T19:27:41.524Z,75.38
2023-04-15T19:30:40.780Z,75.51
2023-04-15T19:33:38.660Z,75.62
2023-04-15T19:36:36.942Z,75.69
2023-04-15T19:39:35.738Z,75.82
2023-04-15T19:42:34.724Z,75.90
2023-04-15T19:45:33.624Z,75.94
2023-04-15T19:48:32.823Z,76.00
2023-04-15T19:51:33.122Z,76.07
2023-04-15T19:54:32.148Z,76.14
2023-04-15T19:57:29.657Z,76.22
2023-04-15T20:00:29.445Z,76.30
2023-04-15T20:03:29.276Z,76.32
2023-04-15T20:06:28.654Z,76.40
2023-04-15T20:09:26.874Z,76.46
2023-04-15T20:12:51.563Z,76.50
2023-04-15T20:15:46.378Z,76.51
2023-04-15T20:18:44.367Z,76.58
2023-04-15T20:21:43.587Z,76.66
2023-04-15T20:24:42.592Z,76.70
2023-04-15T20:27:40.608Z,76.72
2023-04-15T20:30:43.450Z,76.77
2023-04-15T20:33:41.629Z,76.80
2023-04-15T20:36:40.254Z,76.80
2023-04-15T20:39:38.608Z,76.80
2023-04-15T20:42:37.007Z,76.80
2023-04-15T20:45:35.668Z,76.80
2023-04-15T20:48:33.231Z,76.84
2023-04-15T20:51:39.020Z,76.90
2023-04-15T20:54:36.976Z,76.88
2023-04-15T20:57:34.844Z,76.90
2023-04-15T21:00:33.638Z,76.90
2023-04-15T21:03:31.278Z,76.94
2023-04-15T21:06:29.170Z,77.03
2023-04-15T21:09:26.583Z,77.10
2023-04-15T21:12:24.699Z,77.13
2023-04-15T21:15:22.190Z,77.20
2023-04-15T21:18:20.240Z,77.25
2023-04-15T21:21:18.849Z,77.30
2023-04-15T21:24:16.349Z,77.30
2023-04-15T21:27:14.034Z,77.37
2023-04-15T21:30:11.436Z,77.40
2023-04-15T21:33:09.139Z,77.42
2023-04-15T21:36:06.746Z,77.48
2023-04-15T21:39:04.465Z,77.50
2023-04-15T21:42:03.212Z,77.50
2023-04-15T21:45:00.720Z,77.50
2023-04-15T21:48:07.382Z,77.48
2023-04-15T21:51:06.179Z,77.47
2023-04-15T21:54:03.787Z,77.41
2023-04-15T21:57:02.311Z,77.43
2023-04-15T22:00:00.007Z,77.40
2023-04-15T22:02:57.515Z,77.40
2023-04-15T22:05:55.462Z,77.41
2023-04-15T22:08:57.344Z,77.42
2023-04-15T22:11:55.403Z,77.40
2023-04-15T22:14:53.081Z,77.40
2023-04-15T22:17:50.881Z,77.41
2023-04-15T22:20:48.594Z,77.40
2023-04-15T22:23:46.257Z,77.42
2023-04-15T22:26:43.697Z,77.40
2023-04-15T22:29:41.472Z,77.40
2023-04-15T22:32:38.918Z,77.40
2023-04-15T22:35:37.638Z,77.41
2023-04-15T22:38:35.086Z,77.47
2023-04-15T22:41:32.647Z,77.48
2023-04-15T22:44:30.519Z,77.47
2023-04-15T22:47:28.024Z,77.51
2023-04-15T22:50:25.840Z,77.59
2023-04-15T22:53:23.286Z,77.60
2023-04-15T22:56:21.572Z,77.62
2023-04-15T22:59:19.093Z,77.70
2023-04-15T23:02:19.498Z,77.79
2023-04-15T23:05:17.519Z,77.86
2023-04-15T23:08:14.971Z,77.93
2023-04-15T23:11:12.599Z,78.00
2023-04-15T23:14:09.995Z,78.01
2023-04-15T23:17:07.857Z,78.08
2023-04-15T23:20:05.321Z,78.10
2023-04-15T23:23:03.029Z,78.10
2023-04-15T23:26:01.795Z,78.14
2023-04-15T23:28:59.277Z,78.20
2023-04-15T23:31:57.137Z,78.20
2023-04-15T23:34:54.782Z,78.28
2023-04-15T23:37:52.568Z,78.30
2023-04-15T23:40:50.036Z,78.30
2023-04-15T23:43:47.688Z,78.30
2023-04-15T23:46:45.400Z,78.30
2023-04-15T23:49:42.816Z,78.22
2023-04-15T23:52:40.548Z,78.26
2023-04-15T23:55:37.949Z,78.22
2023-04-15T23:58:35.720Z,78.21
